Airfield :
LOGIN :

Register | Disclaimer

   EN    FR    IT 

 










Legend :    VFR   Marginal VFR   IFR   Intensive IFR   Very Intensive IFR
Visi :
Ceiling :
>= 8 km
>= 3000ft
5 to 8 km
1000 to 3000 ft
1500m to 5 km
500 to 1000 ft
800 to 1500m
200 to 500 ft
< 800m
< 200 ft
Symbols :   Thunderstorms  Fog  Heavy snow  Heavy precipitations  Wind > 20 kt
SIGMETs :     Misc.  Thunderstorms  Icing  Turbulence  Mountain Waves  Volcanic Ashes






- Airport Elevation : 242 ft
- IATA code : DUB


EIDW - Dublin

CURRENT METAR :
  • 061830Z 30012KT 9999 -RA FEW008 SCT012 BKN016 10/09 Q1004 NOSIG

EXPIRED METARs :
  • 061800Z 29015KT 9999 FEW010 SCT013 BKN016 10/09 Q1004 NOSIG
  • 061730Z 30014KT 9999 -RA FEW010 SCT013 BKN016 10/09 Q1003 NOSIG
  • 061700Z 29013KT 9999 -RA FEW012 SCT016 BKN024 11/09 Q1003 NOSIG
  • 061630Z 31017KT 9999 -RA FEW017 BKN024 11/08 Q1003 NOSIG
  • 061600Z 31016KT 9999 -RA FEW017 BKN024 11/08 Q1003 NOSIG
  • 061530Z 31014KT 9999 -RA FEW017 BKN024 11/08 Q1003 NOSIG

TAF TAF EIDW
Valid from the 06 at 18:00 until the 07 at 18:00 UTC


061700Z 0618/0718 30012KT 9999 FEW015 BKN025
TEMPO 0618/0709 -RA BKN012
PROB40
TEMPO 0618/0620 31015G25KT
PROB30
TEMPO 0618/0703 BKN008
BECMG 0711/0713 35009KT
BECMG 0714/0715 02009KT



MET'MAP, your aeronautical weather chart ! - Copyright ORBIFLY December 2007 - Disclaimer

ORBIFLY MET'MAP TEAM :

Programming & Development : Alexandra Zaïnal
Concept & original design : Baudouin d'Aumeries
Assistance for programming : Marc-Olivier Méhu
Technical & hardware support : Manuel Goepfert

Contact : metmap@orbifly.com




SOURCES & CREDITS :

   NOAA